Time;durP1;ratioP1;P1;durP2;ratioP2;P2;SDS_P1;SDS_P2;PMS_P1;PMS_P2;Temp;Humidity;BMP_temperature;BMP_pressure;BME280_temperature;BME280_humidity;BME280_pressure;Samples;Min_cycle;Max_cycle;Signal;HPM_P1;HPM_P2
2022/11/07 00:02:02;;;;;;;41.33;20.65;;;;;;;4.67;100.00;98111.23;1711860;83;20882;-82
2022/11/07 00:04:28;;;;;;;36.13;20.08;;;;;;;4.65;100.00;98105.30;1711735;83;21918;-78
2022/11/07 00:06:55;;;;;;;41.65;20.55;;;;;;;4.64;100.00;98106.89;1711343;83;21010;-82
2022/11/07 00:09:20;;;;;;;41.23;21.33;;;;;;;4.62;100.00;98099.08;1711763;82;20998;-79
2022/11/07 00:11:46;;;;;;;40.12;22.22;;;;;;;4.67;100.00;98101.03;1700270;83;20891;-82
2022/11/07 00:14:13;;;;;;;39.08;22.22;;;;;;;4.68;100.00;98100.78;1683098;83;22531;-79
2022/11/07 00:16:39;;;;;;;42.50;21.80;;;;;;;4.68;100.00;98098.10;1683096;84;21155;-82
2022/11/07 00:19:05;;;;;;;37.85;22.17;;;;;;;4.66;100.00;98095.37;1683013;83;20855;-82
2022/11/07 00:21:31;;;;;;;41.48;20.43;;;;;;;4.70;100.00;98097.86;1683097;85;21617;-82
2022/11/07 00:23:57;;;;;;;40.45;21.02;;;;;;;4.67;100.00;98097.81;1683191;83;20979;-82
2022/11/07 00:26:23;;;;;;;47.00;23.20;;;;;;;4.64;100.00;98094.81;1683210;85;21001;-78
2022/11/07 00:28:49;;;;;;;48.80;21.80;;;;;;;4.58;100.00;98093.89;1683110;83;21179;-78
2022/11/07 00:31:15;;;;;;;45.98;21.10;;;;;;;4.60;100.00;98096.33;1693091;83;20990;-79
2022/11/07 00:33:41;;;;;;;47.67;23.12;;;;;;;4.56;100.00;98087.95;1713147;83;21018;-82
2022/11/07 00:36:09;;;;;;;45.45;20.55;;;;;;;4.56;100.00;98089.82;1717996;83;21953;-82
2022/11/07 00:38:35;;;;;;;40.15;21.10;;;;;;;4.49;100.00;98092.11;1718405;83;21516;-79
2022/11/07 00:41:03;;;;;;;45.00;22.40;;;;;;;4.43;100.00;98085.00;1718405;83;21137;-78
2022/11/07 00:43:29;;;;;;;38.17;21.15;;;;;;;4.35;100.00;98084.03;1718645;83;21055;-81
2022/11/07 00:45:56;;;;;;;33.02;19.62;;;;;;;4.30;100.00;98077.77;1718384;83;20990;-78
2022/11/07 00:48:22;;;;;;;37.45;20.10;;;;;;;4.31;100.00;98084.23;1715233;83;20990;-82
2022/11/07 00:50:47;;;;;;;39.58;21.42;;;;;;;4.31;100.00;98086.92;1711815;83;20982;-82
2022/11/07 00:53:13;;;;;;;36.03;19.77;;;;;;;4.32;100.00;98089.08;1711793;82;21074;-81
2022/11/07 00:55:39;;;;;;;40.05;20.12;;;;;;;4.31;100.00;98092.28;1711801;83;20977;-82
2022/11/07 00:58:05;;;;;;;50.60;22.77;;;;;;;4.30;100.00;98098.70;1711837;82;20993;-78
2022/11/07 01:00:31;;;;;;;48.00;24.10;;;;;;;4.30;100.00;98089.84;1711892;83;20883;-82
2022/11/07 01:05:41;;;;;;;46.63;22.00;;;;;;;4.31;100.00;98084.77;1711783;83;22003;-79
2022/11/07 01:08:07;;;;;;;46.48;21.68;;;;;;;4.24;100.00;98079.53;1711605;82;20898;-82
2022/11/07 01:10:33;;;;;;;51.83;22.15;;;;;;;4.25;100.00;98081.16;1711872;83;21659;-78
2022/11/07 01:12:59;;;;;;;51.28;20.27;;;;;;;4.20;100.00;98081.88;1711612;82;20866;-79
2022/11/07 01:15:25;;;;;;;49.23;20.80;;;;;;;4.20;100.00;98086.44;1711950;83;20906;-82
2022/11/07 01:17:51;;;;;;;48.25;21.15;;;;;;;4.18;100.00;98079.13;1711656;82;21190;-82
2022/11/07 01:20:17;;;;;;;47.15;22.55;;;;;;;4.15;100.00;98078.27;1711872;83;20871;-78
2022/11/07 01:22:43;;;;;;;45.17;21.93;;;;;;;4.12;100.00;98076.89;1711807;82;20906;-82
2022/11/07 01:25:09;;;;;;;43.20;20.65;;;;;;;4.07;100.00;98074.08;1711964;83;20898;-82
2022/11/07 01:27:34;;;;;;;41.90;19.02;;;;;;;4.05;100.00;98070.83;1711757;82;20883;-82
2022/11/07 01:30:00;;;;;;;43.52;19.00;;;;;;;4.07;100.00;98068.72;1711914;83;21860;-81
2022/11/07 01:32:26;;;;;;;43.80;20.43;;;;;;;4.03;100.00;98066.23;1712977;83;20871;-79
2022/11/07 01:34:52;;;;;;;40.10;21.62;;;;;;;4.03;100.00;98066.23;1715660;83;20908;-82
2022/11/07 01:37:18;;;;;;;39.42;20.65;;;;;;;4.03;100.00;98066.77;1718258;83;20873;-79
2022/11/07 01:39:44;;;;;;;39.23;19.45;;;;;;;3.99;100.00;98062.91;1718579;83;21008;-79
2022/11/07 01:42:11;;;;;;;50.55;22.35;;;;;;;4.02;100.00;98071.31;1718295;83;21645;-78
2022/11/07 01:44:42;;;;;;;35.10;19.35;;;;;;;4.00;100.00;98065.34;1690391;83;21015;-82
2022/11/07 01:47:08;;;;;;;40.83;19.27;;;;;;;4.00;100.00;98059.17;1718354;83;21420;-82
2022/11/07 01:49:38;;;;;;;40.08;21.23;;;;;;;4.01;100.00;98050.89;1718731;83;20892;-82
2022/11/07 01:52:12;;;;;;;37.55;21.37;;;;;;;4.01;100.00;98057.59;1690110;83;21035;-81
2022/11/07 01:55:01;;;;;;;35.45;17.67;;;;;;;4.04;100.00;98062.50;1718662;83;21800;-82
2022/11/07 01:57:46;;;;;;;30.82;15.32;;;;;;;4.04;100.00;98046.94;1718214;83;21123;-78
2022/11/07 02:00:14;;;;;;;29.05;16.05;;;;;;;4.07;100.00;98055.84;1718480;83;21067;-81
2022/11/07 02:02:40;;;;;;;28.67;18.00;;;;;;;3.96;100.00;98046.78;1719027;83;21501;-79
2022/11/07 02:05:07;;;;;;;28.00;15.55;;;;;;;3.98;100.00;98049.22;1718687;83;20889;-78
2022/11/07 02:07:33;;;;;;;25.50;13.85;;;;;;;4.00;100.00;98050.59;1718395;83;21134;-78
2022/11/07 02:09:59;;;;;;;28.52;15.13;;;;;;;4.02;100.00;98049.86;1718657;83;20977;-79
2022/11/07 02:12:25;;;;;;;25.80;15.88;;;;;;;4.05;100.00;98044.02;1718057;83;20861;-82
2022/11/07 02:14:52;;;;;;;29.15;15.08;;;;;;;4.05;100.00;98044.02;1718672;83;21055;-78
2022/11/07 02:17:18;;;;;;;30.77;15.40;;;;;;;4.08;100.00;98048.08;1718510;83;20972;-82
2022/11/07 02:19:49;;;;;;;23.30;14.28;;;;;;;4.08;100.00;98040.03;1718310;83;21145;-78
2022/11/07 02:22:47;;;;;;;27.37;15.90;;;;;;;4.11;100.00;98040.92;1718203;83;21007;-81
2022/11/07 02:25:15;;;;;;;28.63;15.17;;;;;;;4.11;100.00;98043.08;1718916;83;21408;-78
2022/11/07 02:27:41;;;;;;;27.80;14.83;;;;;;;4.12;100.00;98038.00;1718098;83;21008;-79
2022/11/07 02:30:20;;;;;;;29.60;15.72;;;;;;;4.10;100.00;98030.72;1718735;83;21008;-82
2022/11/07 02:32:46;;;;;;;24.32;14.73;;;;;;;4.08;100.00;98028.78;1713760;83;26897;-82
2022/11/07 02:35:42;;;;;;;27.07;14.98;;;;;;;4.11;100.00;98030.20;1712401;83;21077;-78
2022/11/07 02:38:31;;;;;;;28.92;16.45;;;;;;;4.10;100.00;98019.15;1711681;82;21018;-79
2022/11/07 02:41:01;;;;;;;26.10;14.68;;;;;;;4.12;100.00;98021.09;1710840;83;21016;-82
2022/11/07 02:43:28;;;;;;;26.15;15.53;;;;;;;4.13;100.00;98019.51;1711696;82;21065;-78
2022/11/07 02:45:55;;;;;;;29.37;16.75;;;;;;;4.14;100.00;98023.00;1711768;83;21447;-79
2022/11/07 02:48:21;;;;;;;30.57;17.20;;;;;;;4.11;100.00;98018.13;1690965;83;21022;-79
2022/11/07 02:50:46;;;;;;;21.35;13.45;;;;;;;4.10;100.00;98015.12;1711938;83;20961;-82
2022/11/07 02:53:12;;;;;;;26.95;14.95;;;;;;;4.12;100.00;98015.20;1711634;82;20974;-78
2022/11/07 02:55:38;;;;;;;21.90;14.45;;;;;;;4.02;100.00;98019.02;1711701;83;20970;-79
2022/11/07 02:58:04;;;;;;;20.12;12.55;;;;;;;4.02;100.00;98014.19;1711595;82;21118;-82
2022/11/07 03:00:30;;;;;;;23.50;13.80;;;;;;;4.04;100.00;98006.72;1711745;83;21009;-79
2022/11/07 03:02:56;;;;;;;19.90;13.15;;;;;;;4.07;100.00;98014.27;1711581;82;20902;-78
2022/11/07 03:05:22;;;;;;;22.10;13.28;;;;;;;4.09;100.00;98009.48;1711876;83;20910;-79
2022/11/07 03:07:48;;;;;;;21.68;13.85;;;;;;;4.08;100.00;98007.86;1711512;82;20910;-82
2022/11/07 03:10:15;;;;;;;23.87;13.95;;;;;;;4.04;100.00;98000.83;1711704;83;21819;-82
2022/11/07 03:12:41;;;;;;;25.27;14.95;;;;;;;4.02;100.00;98008.83;1711442;82;21006;-79
2022/11/07 03:15:08;;;;;;;24.63;14.45;;;;;;;4.02;100.00;98001.59;1711939;83;20898;-82
2022/11/07 03:17:34;;;;;;;26.75;15.80;;;;;;;3.99;100.00;98001.23;1711488;82;21033;-78
2022/11/07 03:20:00;;;;;;;24.23;14.45;;;;;;;3.95;100.00;98007.09;1711775;83;21506;-82
2022/11/07 03:22:26;;;;;;;24.37;13.78;;;;;;;3.94;100.00;98016.72;1711564;82;21172;-81
2022/11/07 03:24:52;;;;;;;22.98;13.65;;;;;;;3.88;100.00;98005.06;1711882;83;20950;-78
2022/11/07 03:27:18;;;;;;;20.55;12.93;;;;;;;3.90;100.00;98003.48;1711636;82;20886;-79
2022/11/07 03:29:44;;;;;;;24.25;14.98;;;;;;;3.89;100.00;98009.36;1711948;83;20966;-82
2022/11/07 03:32:10;;;;;;;26.70;16.55;;;;;;;3.90;100.00;98014.20;1730603;81;20881;-82
2022/11/07 03:34:36;;;;;;;21.97;13.83;;;;;;;3.92;100.00;98010.22;1730657;82;20983;-82
2022/11/07 03:37:03;;;;;;;26.52;14.87;;;;;;;3.99;100.00;98015.45;1713097;83;21427;-79
2022/11/07 03:39:29;;;;;;;26.57;16.62;;;;;;;4.00;100.00;98010.38;1713498;81;21510;-79
2022/11/07 03:41:55;;;;;;;29.15;15.98;;;;;;;4.07;100.00;98023.66;1713045;83;21031;-82
2022/11/07 03:44:21;;;;;;;23.75;15.55;;;;;;;4.11;100.00;98013.58;1713238;83;20893;-82
2022/11/07 03:46:47;;;;;;;24.37;14.73;;;;;;;4.15;100.00;98018.73;1713446;83;21181;-82
2022/11/07 03:49:13;;;;;;;23.60;14.78;;;;;;;4.16;100.00;98015.52;1712954;83;21576;-79
2022/11/07 03:51:39;;;;;;;28.10;15.43;;;;;;;4.16;100.00;98008.30;1713243;83;20953;-83
2022/11/07 03:54:04;;;;;;;28.92;16.67;;;;;;;4.19;100.00;98012.39;1713228;83;22223;-81
2022/11/07 03:56:30;;;;;;;29.98;14.95;;;;;;;4.15;100.00;98008.01;1713331;83;20890;-78
2022/11/07 03:58:56;;;;;;;25.77;16.00;;;;;;;4.13;100.00;97995.38;1713139;82;21161;-82
2022/11/07 04:01:22;;;;;;;24.35;15.83;;;;;;;4.10;100.00;98002.56;1713221;83;21634;-78
2022/11/07 04:03:48;;;;;;;26.42;16.60;;;;;;;4.11;100.00;98006.88;1712985;83;20897;-79
2022/11/07 04:06:14;;;;;;;24.65;15.38;;;;;;;4.06;100.00;98010.78;1713212;83;20913;-79
2022/11/07 04:08:40;;;;;;;25.02;14.98;;;;;;;4.08;100.00;98008.67;1713108;83;20972;-82
2022/11/07 04:11:06;;;;;;;30.50;15.43;;;;;;;4.06;100.00;98009.44;1713288;83;21991;-78
2022/11/07 04:19:02;;;;;;;24.87;15.23;;;;;;;4.15;100.00;97998.63;1713001;83;21006;-81
2022/11/07 04:21:28;;;;;;;26.80;14.47;;;;;;;4.20;100.00;97992.03;1713129;83;21660;-79
2022/11/07 04:23:54;;;;;;;23.15;14.40;;;;;;;4.24;100.00;97995.03;1713084;83;21363;-78
2022/11/07 04:29:04;;;;;;;36.90;21.65;;;;;;;4.30;100.00;97987.91;1713171;83;20998;-79
2022/11/07 04:31:29;;;;;;;41.68;24.60;;;;;;;4.31;100.00;97988.19;1706831;83;20966;-82
2022/11/07 04:33:55;;;;;;;33.42;18.20;;;;;;;4.35;100.00;97983.43;1698537;83;21594;-78
2022/11/07 04:36:21;;;;;;;28.12;15.68;;;;;;;4.40;100.00;97991.58;1711780;83;21326;-81
2022/11/07 04:38:47;;;;;;;34.50;19.60;;;;;;;4.40;100.00;97988.90;1711728;82;20930;-79
2022/11/07 04:41:22;;;;;;;25.05;15.23;;;;;;;4.42;100.00;97983.29;1711633;83;20906;-82
2022/11/07 04:43:48;;;;;;;25.48;14.65;;;;;;;4.46;100.00;97979.08;1711609;82;21046;-82
2022/11/07 04:46:15;;;;;;;24.05;14.95;;;;;;;4.47;100.00;97986.08;1711853;83;21001;-79
2022/11/07 04:48:42;;;;;;;25.00;15.25;;;;;;;4.50;100.00;97986.92;1711655;82;21346;-79
2022/11/07 04:51:16;;;;;;;24.87;15.43;;;;;;;4.49;100.00;97985.30;1711714;83;21052;-79
2022/11/07 04:53:42;;;;;;;27.45;14.70;;;;;;;4.49;100.00;97978.06;1711744;82;21014;-79
2022/11/07 04:56:08;;;;;;;24.27;15.23;;;;;;;4.51;100.00;97977.28;1711813;83;20977;-78
2022/11/07 04:58:34;;;;;;;24.72;14.75;;;;;;;4.53;100.00;97989.14;1711779;82;20978;-82
2022/11/07 05:00:59;;;;;;;29.48;15.15;;;;;;;4.52;100.00;97982.94;1711890;83;21095;-82
2022/11/07 05:03:25;;;;;;;21.50;13.90;;;;;;;4.55;100.00;97978.16;1711345;82;21001;-79
2022/11/07 05:05:51;;;;;;;27.35;15.70;;;;;;;4.59;100.00;97976.61;1712006;83;20914;-82
2022/11/07 05:08:17;;;;;;;30.57;16.37;;;;;;;4.62;100.00;97971.59;1711603;82;20950;-82
2022/11/07 05:10:43;;;;;;;34.98;20.32;;;;;;;4.68;100.00;97978.66;1711843;83;20973;-82
2022/11/07 05:13:09;;;;;;;36.55;20.35;;;;;;;4.77;100.00;97987.12;1711662;82;21244;-79
2022/11/07 05:15:35;;;;;;;33.67;21.05;;;;;;;4.85;100.00;97992.09;1712010;83;20954;-82
2022/11/07 05:18:01;;;;;;;41.02;22.40;;;;;;;4.91;100.00;97995.68;1711585;82;21025;-78
2022/11/07 05:20:32;;;;;;;34.67;21.65;;;;;;;4.97;100.00;97994.19;1711966;83;20962;-82
2022/11/07 05:25:51;;;;;;;45.08;25.40;;;;;;;5.03;100.00;97993.72;1711831;83;22017;-79
2022/11/07 05:28:21;;;;;;;29.82;17.85;;;;;;;5.01;100.00;97989.94;1711639;82;21418;-79
2022/11/07 05:30:47;;;;;;;30.40;16.52;;;;;;;4.95;100.00;97995.47;1711185;83;20974;-79
2022/11/07 05:33:15;;;;;;;26.62;15.68;;;;;;;4.95;100.00;97998.96;1712975;83;21525;-82
2022/11/07 05:35:41;;;;;;;29.73;15.83;;;;;;;4.98;100.00;97997.16;1717562;83;21067;-79
2022/11/07 05:38:07;;;;;;;26.40;17.12;;;;;;;4.97;100.00;97992.03;1718326;83;21043;-82
2022/11/07 05:40:37;;;;;;;31.82;18.00;;;;;;;4.99;100.00;97997.96;1718399;83;21523;-82
2022/11/07 05:43:06;;;;;;;32.67;19.30;;;;;;;4.98;100.00;98002.52;1718326;83;21063;-79
2022/11/07 05:45:32;;;;;;;33.38;19.42;;;;;;;5.01;100.00;97999.88;1718746;83;21019;-82
2022/11/07 05:47:59;;;;;;;35.65;20.57;;;;;;;5.07;100.00;98005.61;1718162;83;21503;-79
2022/11/07 05:50:26;;;;;;;40.52;23.02;;;;;;;5.08;100.00;98008.58;1718574;83;21367;-81
2022/11/07 05:52:52;;;;;;;71.30;35.52;;;;;;;5.11;100.00;98012.11;1718252;83;21043;-79
2022/11/07 05:55:19;;;;;;;56.42;28.15;;;;;;;5.14;100.00;98006.27;1717417;83;21580;-82
2022/11/07 05:57:44;;;;;;;48.08;27.80;;;;;;;5.19;100.00;98010.89;1711972;83;21025;-82
2022/11/07 06:00:12;;;;;;;42.80;26.85;;;;;;;5.25;100.00;98020.14;1710884;82;21635;-78
2022/11/07 06:02:37;;;;;;;41.65;23.70;;;;;;;5.27;100.00;98018.55;1693516;83;21067;-82
2022/11/07 06:05:04;;;;;;;49.48;25.75;;;;;;;5.33;100.00;98026.97;1697070;83;20882;-82
2022/11/07 06:07:35;;;;;;;45.05;24.40;;;;;;;5.35;100.00;98032.38;1713154;82;21028;-82
2022/11/07 06:10:03;;;;;;;48.23;27.37;;;;;;;5.39;100.00;98031.38;1702034;82;20993;-79
2022/11/07 06:12:29;;;;;;;42.62;23.75;;;;;;;5.42;100.00;98037.59;1713340;82;21454;-79
2022/11/07 06:14:55;;;;;;;37.98;23.75;;;;;;;5.46;100.00;98039.25;1703137;82;21029;-82
2022/11/07 06:17:21;;;;;;;43.33;24.12;;;;;;;5.48;100.00;98041.18;1713131;82;20862;-82
2022/11/07 06:19:47;;;;;;;41.58;23.15;;;;;;;5.52;100.00;98047.67;1713449;83;21024;-79
2022/11/07 06:22:13;;;;;;;31.75;18.42;;;;;;;5.56;100.00;98054.20;1713112;83;20902;-82
2022/11/07 06:24:38;;;;;;;30.25;19.12;;;;;;;5.61;100.00;98059.64;1713393;83;20993;-79
2022/11/07 06:27:04;;;;;;;40.43;18.20;;;;;;;5.65;100.00;98060.25;1689891;83;21091;-82
2022/11/07 06:29:30;;;;;;;27.42;17.67;;;;;;;5.66;100.00;98065.91;1690091;83;20878;-79
2022/11/07 06:31:56;;;;;;;28.38;15.63;;;;;;;5.68;100.00;98076.95;1728684;82;20908;-78
2022/11/07 06:34:22;;;;;;;30.90;16.80;;;;;;;5.66;100.00;98073.98;1731348;81;20949;-79
2022/11/07 06:36:54;;;;;;;25.02;14.95;;;;;;;5.63;100.00;98071.77;1709147;83;20887;-78
2022/11/07 06:39:20;;;;;;;27.05;15.40;;;;;;;5.69;100.00;98078.04;1690675;83;21309;-82
2022/11/07 06:41:49;;;;;;;31.15;15.60;;;;;;;5.73;100.00;98085.91;1684891;84;21512;-79
2022/11/07 06:44:16;;;;;;;;;;;;;;;5.73;100.00;98079.72;1701302;83;21524;-79
2022/11/07 06:46:42;;;;;;;25.10;14.70;;;;;;;5.73;100.00;98081.88;1689131;85;20202;-79
2022/11/07 06:49:08;;;;;;;30.23;14.93;;;;;;;5.73;100.00;98081.88;1690833;83;21011;-82
2022/11/07 06:51:34;;;;;;;25.52;15.72;;;;;;;5.79;100.00;98081.41;1711872;82;21888;-79
2022/11/07 06:54:00;;;;;;;27.65;16.27;;;;;;;5.76;100.00;98089.44;1718384;82;20851;-78
2022/11/07 06:56:25;;;;;;;28.12;15.68;;;;;;;5.76;100.00;98078.69;1702064;83;21049;-82
2022/11/07 06:58:51;;;;;;;25.52;16.73;;;;;;;5.83;100.00;98077.98;1708093;83;20953;-82
2022/11/07 07:01:17;;;;;;;29.05;16.60;;;;;;;5.86;100.00;98078.02;1712717;82;20969;-79
2022/11/07 07:03:44;;;;;;;30.02;17.92;;;;;;;5.94;100.00;98089.19;1697846;83;21715;-79
2022/11/07 07:06:15;;;;;;;35.03;18.82;;;;;;;6.02;100.00;98082.58;1709421;83;21564;-83
2022/11/07 07:08:41;;;;;;;29.37;17.67;;;;;;;6.08;100.00;98075.40;1706069;82;20993;-79
2022/11/07 07:11:10;;;;;;;32.30;18.05;;;;;;;6.16;100.00;98082.50;1704765;83;20998;-79
2022/11/07 07:13:36;;;;;;;;;;;;;;;6.27;100.00;98078.59;1707533;82;21623;-79
2022/11/07 07:16:02;;;;;;;28.00;16.75;;;;;;;6.35;100.00;98084.34;1703417;83;21915;-82
2022/11/07 07:18:28;;;;;;;35.30;20.62;;;;;;;6.41;100.00;98084.70;1707087;83;20996;-79
2022/11/07 07:21:11;;;;;;;40.70;17.95;;;;;;;6.52;100.00;98092.36;1704460;83;20980;-79
2022/11/07 07:23:37;;;;;;;26.68;17.62;;;;;;;6.60;100.00;98091.10;1708947;82;21051;-79
2022/11/07 07:26:05;;;;;;;28.60;16.97;;;;;;;6.61;100.00;98091.38;1709742;82;21472;-79
2022/11/07 07:28:31;;;;;;;28.20;17.85;;;;;;;6.69;100.00;98090.39;1708935;82;21848;-82
2022/11/07 07:31:18;;;;;;;38.00;20.45;;;;;;;6.79;100.00;98090.50;1703320;83;20947;-80
2022/11/07 07:33:45;;;;;;;33.10;18.45;;;;;;;6.82;100.00;98093.21;1703142;83;21005;-79
2022/11/07 07:36:11;;;;;;;31.27;19.48;;;;;;;6.91;100.00;98080.91;1700583;83;21048;-82
2022/11/07 07:38:38;;;;;;;29.57;20.65;;;;;;;7.00;100.00;98084.77;1701905;82;21063;-82
2022/11/07 07:41:04;;;;;;;37.08;21.00;;;;;;;7.03;100.00;98071.34;1706272;82;21150;-79
2022/11/07 07:43:30;;;;;;;55.33;28.75;;;;;;;7.02;100.00;98071.88;1702692;82;21076;-82
2022/11/07 07:46:01;;;;;;;32.30;20.72;;;;;;;7.10;100.00;98063.06;1713089;82;20874;-79
2022/11/07 07:48:27;;;;;;;31.62;18.73;;;;;;;7.15;100.00;98063.09;1701163;82;21079;-82
2022/11/07 07:50:53;;;;;;;30.17;17.65;;;;;;;7.20;100.00;98058.56;1709010;82;21041;-83
2022/11/07 07:53:19;;;;;;;34.23;18.60;;;;;;;7.25;100.00;98059.13;1700658;82;21600;-79
2022/11/07 07:55:45;;;;;;;31.57;19.52;;;;;;;7.30;100.00;98057.30;1704646;82;20874;-79
2022/11/07 07:58:11;;;;;;;34.50;20.02;;;;;;;7.32;100.00;98057.03;1703365;82;21095;-79
2022/11/07 08:00:37;;;;;;;33.83;19.27;;;;;;;7.41;100.00;98058.18;1701119;82;20849;-79
2022/11/07 08:03:06;;;;;;;34.40;21.15;;;;;;;7.51;100.00;98056.91;1707893;82;21697;-79
2022/11/07 08:05:32;;;;;;;35.15;20.20;;;;;;;7.63;100.00;98066.17;1705220;82;21878;-81
2022/11/07 08:07:58;;;;;;;37.53;23.12;;;;;;;7.81;100.00;98063.59;1702086;83;20913;-79
2022/11/07 08:10:23;;;;;;;28.85;19.17;;;;;;;7.96;100.00;98073.13;1695022;82;20952;-82
2022/11/07 08:12:50;;;;;;;36.53;20.97;;;;;;;8.06;100.00;98065.08;1711421;80;21531;-82
2022/11/07 08:15:17;;;;;;;37.90;19.40;;;;;;;8.22;100.00;98070.56;1707080;82;21037;-82
2022/11/07 08:17:43;;;;;;;41.80;22.70;;;;;;;8.40;100.00;98055.28;1711904;82;21199;-82
2022/11/07 08:20:11;;;;;;;38.90;23.92;;;;;;;8.40;100.00;98055.28;1706358;82;20967;-82
2022/11/07 08:22:37;;;;;;;54.27;29.77;;;;;;;8.46;100.00;98060.98;1698944;82;21123;-82
2022/11/07 08:25:06;;;;;;;42.10;26.55;;;;;;;8.56;100.00;98057.49;1702116;82;21143;-82
2022/11/07 08:27:32;;;;;;;41.50;25.23;;;;;;;8.65;100.00;98050.50;1698473;82;21577;-82
2022/11/07 08:29:58;;;;;;;48.30;29.05;;;;;;;8.63;100.00;98053.47;1700304;82;21723;-82
2022/11/07 08:32:26;;;;;;;44.38;26.75;;;;;;;8.64;100.00;98061.84;1702288;82;20984;-79
2022/11/07 08:34:52;;;;;;;45.88;27.65;;;;;;;8.68;100.00;98054.01;1701944;82;21115;-79
2022/11/07 08:37:18;;;;;;;52.60;27.60;;;;;;;8.78;100.00;98061.32;1703525;82;22179;-79
2022/11/07 08:39:44;;;;;;;44.77;25.77;;;;;;;8.86;100.00;98052.69;1700663;82;20857;-82
2022/11/07 08:42:10;;;;;;;44.58;24.47;;;;;;;8.96;100.00;98056.75;1689567;82;21994;-83
2022/11/07 08:44:36;;;;;;;37.38;22.07;;;;;;;9.05;100.00;98057.84;1707419;82;21050;-79
2022/11/07 08:47:03;;;;;;;31.97;16.37;;;;;;;9.16;100.00;98065.45;1698067;82;21044;-83
2022/11/07 08:49:29;;;;;;;30.37;18.55;;;;;;;9.36;100.00;98065.99;1696019;82;21283;-82
2022/11/07 08:51:55;;;;;;;18.23;9.43;;;;;;;9.55;100.00;98063.81;1707029;82;21060;-82
2022/11/07 08:54:21;;;;;;;19.42;11.20;;;;;;;9.75;100.00;98064.89;1702222;82;21184;-83
2022/11/07 08:56:47;;;;;;;19.32;11.53;;;;;;;10.01;100.00;98067.81;1703719;82;20965;-83
2022/11/07 08:59:13;;;;;;;16.37;11.20;;;;;;;10.21;100.00;98071.00;1708754;82;21072;-82
2022/11/07 09:01:39;;;;;;;17.07;10.70;;;;;;;10.38;100.00;98081.54;1705913;82;21615;-83
2022/11/07 09:04:05;;;;;;;9.90;5.87;;;;;;;10.48;100.00;98075.27;1708152;82;21039;-79
2022/11/07 09:06:31;;;;;;;11.00;7.03;;;;;;;10.66;100.00;98084.93;1714845;82;21138;-79
2022/11/07 09:08:58;;;;;;;15.08;8.35;;;;;;;10.82;100.00;98088.37;1709542;82;22452;-83
2022/11/07 09:11:25;;;;;;;10.98;5.70;;;;;;;11.01;100.00;98096.67;1703708;82;21520;-83
2022/11/07 09:13:52;;;;;;;8.30;5.22;;;;;;;11.12;100.00;98087.40;1713781;82;21008;-79
2022/11/07 09:16:18;;;;;;;9.23;4.65;;;;;;;11.24;100.00;98091.11;1682127;82;21004;-82
2022/11/07 09:18:45;;;;;;;10.43;5.83;;;;;;;11.38;100.00;98094.00;1699469;82;21898;-82
2022/11/07 09:21:11;;;;;;;10.15;4.20;;;;;;;11.45;100.00;98103.45;1702160;82;21131;-83
2022/11/07 09:23:37;;;;;;;7.35;4.75;;;;;;;11.54;100.00;98098.22;1699963;82;20994;-79
2022/11/07 09:26:03;;;;;;;9.28;4.95;;;;;;;11.58;100.00;98104.69;1701047;82;21535;-82
2022/11/07 09:28:29;;;;;;;6.22;4.65;;;;;;;11.65;100.00;98101.66;1711954;82;21080;-80
2022/11/07 09:30:56;;;;;;;8.30;4.83;;;;;;;11.71;100.00;98107.31;1709876;82;20889;-79
2022/11/07 09:33:22;;;;;;;13.10;8.08;;;;;;;11.74;100.00;98107.54;1708144;83;21087;-83
2022/11/07 09:35:48;;;;;;;9.83;5.83;;;;;;;11.78;100.00;98109.94;1702734;82;20901;-83
2022/11/07 09:38:14;;;;;;;8.00;4.28;;;;;;;11.84;100.00;98106.67;1702285;82;21124;-83
2022/11/07 09:40:51;;;;;;;7.30;4.55;;;;;;;11.88;99.58;98100.10;1704964;82;20946;-80
2022/11/07 09:43:53;;;;;;;8.75;3.83;;;;;;;11.93;100.00;98108.22;1701171;82;21239;-79
2022/11/07 09:47:00;;;;;;;9.23;3.20;;;;;;;11.96;99.45;98111.16;1704086;82;21100;-82
2022/11/07 09:49:50;;;;;;;5.65;3.25;;;;;;;12.00;95.15;98113.58;1643594;85;21458;-82
2022/11/07 09:52:48;;;;;;;10.90;4.17;;;;;;;11.98;95.72;98117.68;1720141;82;21202;-82
2022/11/07 09:55:36;;;;;;;7.33;4.10;;;;;;;11.96;95.51;98115.23;1704306;82;21540;-83
2022/11/07 09:58:12;;;;;;;6.72;3.90;;;;;;;11.95;94.13;98117.69;1697652;82;22279;-81
2022/11/07 10:00:39;;;;;;;5.90;3.65;;;;;;;11.95;94.17;98124.47;1646537;85;21036;-83
2022/11/07 10:03:04;;;;;;;11.70;4.87;;;;;;;11.96;94.70;98119.85;1688744;82;21520;-82
2022/11/07 10:05:55;;;;;;;7.67;4.62;;;;;;;11.95;95.04;98112.25;1693571;83;20894;-80
2022/11/07 10:08:35;;;;;;;6.60;4.47;;;;;;;11.96;96.11;98117.14;1702285;83;21054;-83
2022/11/07 10:11:07;;;;;;;11.53;6.03;;;;;;;11.90;91.74;98109.61;1704127;82;21111;-79
2022/11/07 10:14:04;;;;;;;9.48;4.30;;;;;;;11.91;91.88;98110.41;1689458;82;21068;-79
2022/11/07 10:17:12;;;;;;;10.58;4.83;;;;;;;11.91;90.81;98106.34;1707281;82;21044;-79
2022/11/07 10:20:00;;;;;;;7.12;4.00;;;;;;;11.96;93.72;98106.27;1704580;82;20989;-79
2022/11/07 10:22:59;;;;;;;6.08;3.70;;;;;;;12.01;92.92;98111.67;1700321;83;21190;-83
2022/11/07 10:25:58;;;;;;;6.35;3.80;;;;;;;12.08;93.89;98115.67;1710870;82;21926;-83
2022/11/07 10:28:25;;;;;;;7.87;4.00;;;;;;;12.18;94.16;98112.59;1631746;85;21125;-83
2022/11/07 10:30:51;;;;;;;6.03;3.77;;;;;;;12.29;92.07;98113.54;1688385;82;20977;-80
2022/11/07 10:33:35;;;;;;;7.75;3.75;;;;;;;12.33;92.31;98111.88;1708540;82;21024;-79
2022/11/07 10:36:24;;;;;;;5.28;3.65;;;;;;;12.40;91.87;98119.14;1696616;82;21084;-83
2022/11/07 10:38:50;;;;;;;9.00;4.87;;;;;;;12.51;92.77;98115.75;1705208;82;21136;-83
2022/11/07 10:41:27;;;;;;;7.92;3.22;;;;;;;12.61;92.10;98113.46;1695241;82;21080;-80
2022/11/07 10:43:59;;;;;;;5.70;3.12;;;;;;;12.67;88.84;98116.38;1706691;82;21087;-79
2022/11/07 10:46:45;;;;;;;4.80;3.45;;;;;;;12.75;87.70;98115.74;1690206;82;21123;-79
2022/11/07 10:49:28;;;;;;;7.15;4.33;;;;;;;12.68;85.76;98116.64;1701862;82;22168;-83
2022/11/07 10:51:56;;;;;;;6.92;4.28;;;;;;;12.79;88.56;98115.41;1700538;82;21828;-83
2022/11/07 10:54:28;;;;;;;7.20;3.70;;;;;;;12.87;88.10;98122.11;1702657;82;21016;-83
2022/11/07 10:57:15;;;;;;;7.20;3.83;;;;;;;12.93;86.90;98129.11;1701673;82;20973;-83
2022/11/07 10:59:56;;;;;;;5.22;2.65;;;;;;;12.98;87.73;98127.11;1703220;82;21069;-83
2022/11/07 11:02:28;;;;;;;5.05;3.75;;;;;;;12.96;84.36;98133.40;1700910;82;21072;-79
2022/11/07 11:04:59;;;;;;;4.30;2.60;;;;;;;12.89;83.08;98136.22;1706465;82;22054;-80
2022/11/07 11:07:35;;;;;;;9.45;4.90;;;;;;;12.89;83.23;98132.94;1711351;82;21151;-80
2022/11/07 11:10:01;;;;;;;4.95;3.52;;;;;;;12.80;79.50;98127.09;1709996;82;20981;-83
2022/11/07 11:12:31;;;;;;;4.37;2.62;;;;;;;12.88;82.90;98131.33;1655245;82;21099;-83
2022/11/07 11:15:16;;;;;;;3.55;2.55;;;;;;;12.91;83.61;98128.05;1703206;82;21037;-80
2022/11/07 11:17:43;;;;;;;5.10;2.50;;;;;;;12.92;82.55;98124.22;1700546;82;21695;-83
2022/11/07 11:20:30;;;;;;;6.65;2.42;;;;;;;12.89;81.35;98126.70;1702083;82;21028;-83
2022/11/07 11:22:56;;;;;;;4.87;2.80;;;;;;;12.94;78.92;98121.20;1702963;82;21024;-83
2022/11/07 11:25:25;;;;;;;5.95;2.65;;;;;;;12.88;79.51;98120.45;1700144;82;20945;-79
2022/11/07 11:27:55;;;;;;;3.98;1.95;;;;;;;12.86;79.68;98134.89;1700165;82;22535;-83
2022/11/07 11:30:22;;;;;;;4.22;2.62;;;;;;;12.89;79.21;98122.62;1704025;82;21916;-83
2022/11/07 11:32:59;;;;;;;3.45;1.85;;;;;;;12.84;81.14;98124.06;1708850;82;21080;-79
2022/11/07 11:35:42;;;;;;;4.67;2.45;;;;;;;12.82;79.73;98124.36;1705604;82;21594;-80
2022/11/07 11:38:25;;;;;;;6.28;3.08;;;;;;;12.83;80.41;98127.89;1718821;82;21070;-83
2022/11/07 11:41:19;;;;;;;4.40;2.47;;;;;;;12.85;79.98;98129.75;1695980;82;21432;-83
2022/11/07 11:44:07;;;;;;;3.55;2.27;;;;;;;12.88;80.12;98130.52;1708261;82;21230;-83
2022/11/07 11:47:09;;;;;;;6.25;2.42;;;;;;;12.81;79.14;98132.23;1709401;82;21095;-79